Time;durP1;ratioP1;P1;durP2;ratioP2;P2;SDS_P1;SDS_P2;PMS_P1;PMS_P2;Temp;Humidity;BMP_temperature;BMP_pressure;BME280_temperature;BME280_humidity;BME280_pressure;Samples;Min_cycle;Max_cycle;Signal;HPM_P1;HPM_P2
2023/06/07 00:00:09;;;;;;;3.35;2.05;;;17.60;81.20;;;;;;4902948;29;20115;-67
2023/06/07 00:02:36;;;;;;;3.95;2.50;;;17.50;81.50;;;;;;4911876;29;20067;-68
2023/06/07 00:05:02;;;;;;;6.65;2.60;;;17.50;82.10;;;;;;4909495;29;20056;-67
2023/06/07 00:07:27;;;;;;;3.40;2.20;;;17.40;83.20;;;;;;4909867;29;20114;-67
2023/06/07 00:09:53;;;;;;;3.47;2.25;;;17.40;84.80;;;;;;4906778;29;20549;-67
2023/06/07 00:12:18;;;;;;;8.13;2.75;;;17.30;86.00;;;;;;4913545;29;20024;-67
2023/06/07 00:14:44;;;;;;;5.35;2.70;;;17.30;86.00;;;;;;4908788;29;20075;-67
2023/06/07 00:17:10;;;;;;;5.15;2.75;;;17.30;86.20;;;;;;4912173;29;20423;-67
2023/06/07 00:19:36;;;;;;;5.13;2.47;;;17.30;87.20;;;;;;4908800;29;20024;-68
2023/06/07 00:22:02;;;;;;;4.90;2.50;;;17.30;85.80;;;;;;4911359;29;20032;-68
2023/06/07 00:24:27;;;;;;;5.60;2.60;;;17.30;85.20;;;;;;4908368;29;20082;-67
2023/06/07 00:26:53;;;;;;;6.35;2.70;;;17.40;86.00;;;;;;4908430;29;20506;-67
2023/06/07 00:29:19;;;;;;;5.82;2.40;;;17.40;84.70;;;;;;4910630;29;20123;-66
2023/06/07 00:31:45;;;;;;;3.50;2.10;;;17.40;87.00;;;;;;4906983;29;20030;-67
2023/06/07 00:34:10;;;;;;;6.45;2.95;;;17.40;85.70;;;;;;4911174;29;20028;-67
2023/06/07 00:36:36;;;;;;;6.03;2.55;;;17.40;87.70;;;;;;4904788;29;20039;-67
2023/06/07 00:39:02;;;;;;;4.20;2.22;;;17.40;88.20;;;;;;4907454;29;20126;-67
2023/06/07 00:41:28;;;;;;;3.90;2.47;;;17.30;88.40;;;;;;4902002;29;20035;-67
2023/06/07 00:43:54;;;;;;;8.48;2.72;;;17.30;88.70;;;;;;4901376;29;20043;-67
2023/06/07 00:46:22;;;;;;;4.18;2.45;;;17.30;89.90;;;;;;4899214;29;20036;-68
2023/06/07 00:48:49;;;;;;;5.45;2.47;;;17.20;89.60;;;;;;4898934;29;20036;-67
2023/06/07 00:51:15;;;;;;;4.32;2.15;;;17.20;90.40;;;;;;4899249;29;20430;-67
2023/06/07 00:53:42;;;;;;;3.65;2.30;;;17.20;89.20;;;;;;4899401;29;20043;-66
2023/06/07 00:56:08;;;;;;;8.13;2.20;;;17.20;89.50;;;;;;4897999;29;20552;-67
2023/06/07 00:58:34;;;;;;;5.63;2.65;;;17.20;89.60;;;;;;4900246;29;20036;-66
2023/06/07 01:01:01;;;;;;;4.50;2.67;;;17.10;90.20;;;;;;4912333;29;20628;-67
2023/06/07 01:03:29;;;;;;;3.85;2.17;;;17.10;89.40;;;;;;4913731;29;20028;-67
2023/06/07 01:05:54;;;;;;;6.22;3.00;;;17.10;90.00;;;;;;4912877;29;20066;-67
2023/06/07 01:08:21;;;;;;;3.88;2.13;;;17.00;90.20;;;;;;4911791;29;20052;-67
2023/06/07 01:10:48;;;;;;;4.85;2.80;;;17.00;90.30;;;;;;4913196;29;20653;-67
2023/06/07 01:13:16;;;;;;;3.58;2.13;;;17.00;90.60;;;;;;4912559;29;20039;-67
2023/06/07 01:15:42;;;;;;;8.57;2.80;;;17.00;90.70;;;;;;4910384;29;20076;-67
2023/06/07 01:18:11;;;;;;;5.55;2.40;;;17.00;90.80;;;;;;4910829;29;20059;-67
2023/06/07 01:20:43;;;;;;;5.65;2.63;;;17.00;90.90;;;;;;4917076;29;20579;-67
2023/06/07 01:23:12;;;;;;;6.78;3.20;;;17.00;90.70;;;;;;4910595;29;20131;-67
2023/06/07 01:25:38;;;;;;;6.25;2.80;;;17.00;90.90;;;;;;4912209;29;20099;-67
2023/06/07 01:28:05;;;;;;;6.95;2.63;;;17.10;90.80;;;;;;4909095;29;20032;-67
2023/06/07 01:30:32;;;;;;;6.93;2.70;;;17.10;90.80;;;;;;4907841;29;20453;-67
2023/06/07 01:33:02;;;;;;;5.60;2.60;;;17.20;90.60;;;;;;4907071;29;20028;-67
2023/06/07 01:35:29;;;;;;;6.18;2.45;;;17.20;90.50;;;;;;4908556;29;20111;-66
2023/06/07 01:37:56;;;;;;;6.75;2.80;;;17.20;90.50;;;;;;4911325;29;20032;-68
2023/06/07 01:40:22;;;;;;;9.88;2.95;;;17.30;90.60;;;;;;4909436;29;20032;-67
2023/06/07 01:42:49;;;;;;;9.02;2.83;;;17.30;90.60;;;;;;4909935;29;20042;-67
2023/06/07 01:45:15;;;;;;;6.05;2.53;;;17.30;90.50;;;;;;4908319;29;20054;-67
2023/06/07 01:47:41;;;;;;;12.15;3.15;;;17.30;90.40;;;;;;4907434;29;20034;-66
2023/06/07 01:50:08;;;;;;;6.32;3.05;;;17.30;90.40;;;;;;4914283;29;20032;-67
2023/06/07 01:52:34;;;;;;;3.75;2.70;;;17.40;90.40;;;;;;4912475;29;20039;-66
2023/06/07 01:55:03;;;;;;;7.32;3.40;;;17.40;90.20;;;;;;4912979;29;20040;-67
2023/06/07 01:57:43;;;;;;;5.78;2.97;;;17.40;90.10;;;;;;4911368;29;20028;-67
2023/06/07 02:00:14;;;;;;;7.25;2.67;;;17.40;90.30;;;;;;4917533;29;20043;-67
2023/06/07 02:03:11;;;;;;;13.48;2.83;;;17.40;90.40;;;;;;4914587;29;20036;-67
2023/06/07 02:05:40;;;;;;;5.75;2.97;;;17.40;90.70;;;;;;4909514;29;20601;-67
2023/06/07 02:08:13;;;;;;;5.07;2.38;;;17.30;90.70;;;;;;4916127;29;20028;-67
2023/06/07 02:10:40;;;;;;;4.32;2.63;;;17.30;90.60;;;;;;4915580;29;20088;-67
2023/06/07 02:13:07;;;;;;;5.40;3.28;;;17.30;90.90;;;;;;4911948;29;20028;-66
2023/06/07 02:15:33;;;;;;;7.10;3.03;;;17.30;90.90;;;;;;4915224;29;20035;-67
2023/06/07 02:18:01;;;;;;;5.68;2.90;;;17.30;91.10;;;;;;4906338;29;20039;-66
2023/06/07 02:20:30;;;;;;;6.78;3.20;;;17.30;91.30;;;;;;4912175;29;20028;-66
2023/06/07 02:22:56;;;;;;;8.85;2.85;;;17.30;91.20;;;;;;4913628;29;20036;-67
2023/06/07 02:25:25;;;;;;;7.30;2.95;;;17.30;91.40;;;;;;4914598;29;20032;-66
2023/06/07 02:27:52;;;;;;;9.82;2.63;;;17.30;91.60;;;;;;4908060;29;20032;-66
2023/06/07 02:30:18;;;;;;;7.32;2.75;;;17.20;91.80;;;;;;4907102;29;20028;-67
2023/06/07 02:32:53;;;;;;;4.10;2.40;;;17.20;91.90;;;;;;4890320;29;20276;-66
2023/06/07 02:35:19;;;;;;;7.03;2.95;;;17.20;91.80;;;;;;4889803;29;20033;-65
2023/06/07 02:37:45;;;;;;;6.50;2.88;;;17.30;91.90;;;;;;4869871;29;20036;-67
2023/06/07 02:40:12;;;;;;;4.55;2.83;;;17.30;92.00;;;;;;4888846;29;20040;-66
2023/06/07 02:42:37;;;;;;;6.10;2.80;;;17.30;91.90;;;;;;4893416;29;20036;-66
2023/06/07 02:45:04;;;;;;;4.35;2.50;;;17.30;92.20;;;;;;4894620;29;20047;-65
2023/06/07 02:47:30;;;;;;;11.43;2.80;;;17.20;92.40;;;;;;4896267;29;20076;-67
2023/06/07 02:50:00;;;;;;;6.95;2.70;;;17.20;92.60;;;;;;4896326;29;20398;-66
2023/06/07 02:52:26;;;;;;;7.13;3.00;;;17.20;92.80;;;;;;4892553;29;20119;-66
2023/06/07 02:54:51;;;;;;;7.65;2.83;;;17.20;92.70;;;;;;4894664;29;20036;-66
2023/06/07 02:57:18;;;;;;;6.70;3.10;;;17.20;92.80;;;;;;4893279;29;20607;-66
2023/06/07 02:59:44;;;;;;;10.35;3.47;;;17.10;93.00;;;;;;4878483;29;20036;-66
2023/06/07 03:02:10;;;;;;;6.85;2.63;;;17.10;93.10;;;;;;4898592;29;20107;-67
2023/06/07 03:04:38;;;;;;;6.05;3.25;;;17.10;94.00;;;;;;4897858;29;20083;-66
2023/06/07 03:07:05;;;;;;;8.40;3.00;;;17.10;93.80;;;;;;4891991;29;20093;-66
2023/06/07 03:09:30;;;;;;;4.85;3.00;;;17.10;93.70;;;;;;4892703;29;20670;-67
2023/06/07 03:11:56;;;;;;;6.22;2.80;;;17.10;93.70;;;;;;4893418;29;20032;-66
2023/06/07 03:14:23;;;;;;;4.95;2.63;;;17.10;94.00;;;;;;4894382;29;20905;-66
2023/06/07 03:16:48;;;;;;;4.18;2.47;;;17.10;94.30;;;;;;4895991;29;20024;-66
2023/06/07 03:19:14;;;;;;;5.38;2.92;;;17.00;94.30;;;;;;4894913;29;20063;-66
2023/06/07 03:21:44;;;;;;;9.38;2.85;;;17.00;94.40;;;;;;4896002;29;20398;-66
2023/06/07 03:24:11;;;;;;;6.00;2.80;;;17.00;95.10;;;;;;4904397;29;21408;-66
2023/06/07 03:26:37;;;;;;;5.57;2.78;;;16.90;95.70;;;;;;4893943;29;20031;-66
2023/06/07 03:29:02;;;;;;;4.50;2.80;;;16.90;96.60;;;;;;4899149;29;20190;-66
2023/06/07 03:31:29;;;;;;;6.05;3.17;;;16.80;97.30;;;;;;4900890;29;20046;-67
2023/06/07 03:33:55;;;;;;;6.18;3.53;;;16.70;98.60;;;;;;4899867;29;20035;-66
2023/06/07 03:36:21;;;;;;;10.20;3.10;;;16.70;99.90;;;;;;4897357;29;20032;-66
2023/06/07 03:38:47;;;;;;;5.90;3.40;;;16.60;99.90;;;;;;4887993;29;20057;-66
2023/06/07 03:41:12;;;;;;;7.90;2.83;;;16.40;99.90;;;;;;4882881;29;20512;-66
2023/06/07 03:43:38;;;;;;;5.25;3.17;;;16.40;99.90;;;;;;4899804;29;20044;-66
2023/06/07 03:46:04;;;;;;;6.97;3.78;;;16.30;99.90;;;;;;4898285;29;20044;-65
2023/06/07 03:48:29;;;;;;;9.55;3.30;;;16.20;99.90;;;;;;4900413;29;20058;-66
2023/06/07 03:50:55;;;;;;;6.55;3.83;;;16.30;99.90;;;;;;4894884;29;20047;-67
2023/06/07 03:53:20;;;;;;;7.93;3.92;;;16.30;99.90;;;;;;4897961;29;20079;-67
2023/06/07 03:55:48;;;;;;;4.82;3.35;;;16.30;99.90;;;;;;4895845;29;20059;-65
2023/06/07 03:58:18;;;;;;;9.93;4.18;;;16.20;99.90;;;;;;4900833;29;20028;-66
2023/06/07 04:00:44;;;;;;;6.75;3.88;;;16.20;99.90;;;;;;4900403;29;20038;-65
2023/06/07 04:03:10;;;;;;;9.63;4.20;;;16.10;99.90;;;;;;4899066;29;22202;-66
2023/06/07 04:05:38;;;;;;;12.30;4.22;;;16.00;99.90;;;;;;4897835;29;20517;-66
2023/06/07 04:08:05;;;;;;;5.32;3.58;;;16.00;99.90;;;;;;4900057;29;20017;-66
2023/06/07 04:10:31;;;;;;;6.03;3.85;;;16.00;99.90;;;;;;4894326;29;20036;-66
2023/06/07 04:12:56;;;;;;;7.85;3.90;;;16.00;99.90;;;;;;4897123;29;20470;-66
2023/06/07 04:15:22;;;;;;;8.43;3.40;;;16.00;99.90;;;;;;4895896;29;20036;-65
2023/06/07 04:17:48;;;;;;;7.90;4.72;;;16.00;99.90;;;;;;4895246;29;20475;-67
2023/06/07 04:20:14;;;;;;;6.72;3.53;;;16.00;99.90;;;;;;4901462;29;20060;-68
2023/06/07 04:22:41;;;;;;;6.85;3.85;;;16.10;99.90;;;;;;4900032;29;20039;-68
2023/06/07 04:25:07;;;;;;;5.35;3.58;;;16.10;99.90;;;;;;4906933;29;20032;-68
2023/06/07 04:27:34;;;;;;;5.10;3.20;;;16.20;99.90;;;;;;4899687;29;20036;-67
2023/06/07 04:30:01;;;;;;;7.40;3.78;;;16.10;99.90;;;;;;4899294;29;20028;-67
2023/06/07 04:32:28;;;;;;;4.85;3.53;;;16.10;99.90;;;;;;4899857;29;20115;-68
2023/06/07 04:34:54;;;;;;;6.05;3.25;;;16.20;99.90;;;;;;4895806;29;20044;-68
2023/06/07 04:37:20;;;;;;;7.13;3.67;;;16.30;99.90;;;;;;4886045;29;20087;-68
2023/06/07 04:39:48;;;;;;;8.75;3.70;;;16.40;99.90;;;;;;4894129;29;20179;-67
2023/06/07 04:42:19;;;;;;;11.00;3.72;;;16.50;99.90;;;;;;4895980;29;20079;-67
2023/06/07 04:44:45;;;;;;;5.60;3.00;;;16.50;99.90;;;;;;4897639;29;20110;-68
2023/06/07 04:47:11;;;;;;;6.35;4.30;;;16.50;99.90;;;;;;4900264;29;20036;-68
2023/06/07 04:49:38;;;;;;;9.60;4.38;;;16.40;99.90;;;;;;4898211;29;20048;-67
2023/06/07 04:52:05;;;;;;;6.03;3.80;;;16.20;99.90;;;;;;4898877;29;20096;-67
2023/06/07 04:54:32;;;;;;;9.25;3.78;;;16.10;99.90;;;;;;4894808;29;20035;-68
2023/06/07 04:56:58;;;;;;;7.32;3.47;;;16.00;99.90;;;;;;4900560;29;20123;-68
2023/06/07 04:59:25;;;;;;;11.43;3.30;;;16.00;99.90;;;;;;4896182;29;20504;-68
2023/06/07 05:01:51;;;;;;;7.93;3.65;;;16.00;99.90;;;;;;4897942;29;20084;-68
2023/06/07 05:04:17;;;;;;;9.68;4.32;;;16.10;99.90;;;;;;4893851;29;20671;-67
2023/06/07 05:06:43;;;;;;;9.13;4.22;;;16.20;99.90;;;;;;4896182;29;20040;-68
2023/06/07 05:09:09;;;;;;;6.18;3.63;;;16.30;99.90;;;;;;4896926;29;20758;-68
2023/06/07 05:11:34;;;;;;;6.43;3.10;;;16.40;99.90;;;;;;4892449;29;20841;-68
2023/06/07 05:14:00;;;;;;;4.88;3.28;;;16.50;99.90;;;;;;4891054;29;20467;-67
2023/06/07 05:16:26;;;;;;;5.13;3.20;;;16.60;99.90;;;;;;4890077;29;20031;-67
2023/06/07 05:18:53;;;;;;;5.45;3.63;;;16.60;99.90;;;;;;4897878;29;20029;-68
2023/06/07 05:21:18;;;;;;;6.95;3.25;;;16.70;99.90;;;;;;4898123;29;20688;-67
2023/06/07 05:23:44;;;;;;;10.35;3.40;;;16.70;99.90;;;;;;4898373;29;20024;-67
2023/06/07 05:26:10;;;;;;;6.45;3.85;;;16.80;99.90;;;;;;4896901;29;20135;-67
2023/06/07 05:28:35;;;;;;;6.25;3.53;;;16.70;99.90;;;;;;4896768;29;20040;-68
2023/06/07 05:31:01;;;;;;;9.50;3.40;;;16.70;99.90;;;;;;4898457;29;20059;-68
2023/06/07 05:33:28;;;;;;;7.13;4.07;;;16.80;99.90;;;;;;4897246;29;20510;-67
2023/06/07 05:35:54;;;;;;;5.70;3.38;;;16.80;99.90;;;;;;4897081;29;20091;-68
2023/06/07 05:38:20;;;;;;;7.53;2.97;;;16.80;99.90;;;;;;4886294;29;20135;-68
2023/06/07 05:40:46;;;;;;;8.75;3.35;;;16.90;99.90;;;;;;4895826;29;20028;-68
2023/06/07 05:43:11;;;;;;;6.22;3.35;;;16.90;99.90;;;;;;4898823;29;20056;-68
2023/06/07 05:45:37;;;;;;;5.28;3.20;;;16.90;99.90;;;;;;4895604;29;20035;-68
2023/06/07 05:48:03;;;;;;;6.93;3.42;;;16.90;99.90;;;;;;4896327;29;20063;-68
2023/06/07 05:50:28;;;;;;;7.70;2.97;;;16.90;99.90;;;;;;4901250;29;20074;-68
2023/06/07 05:52:58;;;;;;;4.78;2.83;;;16.90;99.90;;;;;;4878930;29;20445;-68
2023/06/07 05:55:27;;;;;;;6.28;3.42;;;16.90;99.90;;;;;;4898027;29;20067;-68
2023/06/07 05:57:54;;;;;;;8.50;3.72;;;16.90;99.90;;;;;;4895130;29;20050;-68
2023/06/07 06:00:20;;;;;;;6.18;3.72;;;16.90;99.90;;;;;;4898971;29;20032;-67
2023/06/07 06:02:46;;;;;;;8.88;3.63;;;16.90;99.90;;;;;;4896445;29;20426;-68
2023/06/07 06:05:15;;;;;;;9.65;3.90;;;16.90;99.90;;;;;;4893562;29;20255;-67
2023/06/07 06:07:42;;;;;;;13.55;3.80;;;16.90;99.90;;;;;;4897466;29;20047;-67
2023/06/07 06:10:08;;;;;;;11.50;3.95;;;16.90;99.90;;;;;;4893841;29;20075;-68
2023/06/07 06:12:34;;;;;;;7.78;3.80;;;16.90;99.90;;;;;;4901321;29;20070;-68
2023/06/07 06:15:00;;;;;;;6.35;3.30;;;16.90;99.90;;;;;;4894555;29;20118;-68
2023/06/07 06:17:26;;;;;;;10.35;4.18;;;16.80;99.90;;;;;;4897742;29;20040;-68
2023/06/07 06:19:52;;;;;;;10.45;3.78;;;16.90;99.90;;;;;;4896949;29;20154;-67
2023/06/07 06:22:18;;;;;;;6.40;3.45;;;16.90;99.90;;;;;;4898841;29;20043;-67
2023/06/07 06:24:43;;;;;;;23.65;4.85;;;16.80;99.90;;;;;;4903585;29;20064;-68
2023/06/07 06:27:10;;;;;;;6.72;3.92;;;16.80;99.90;;;;;;4909931;29;20055;-68
2023/06/07 06:29:36;;;;;;;5.72;3.90;;;16.80;99.90;;;;;;4897160;29;20028;-67
2023/06/07 06:32:02;;;;;;;13.45;4.88;;;16.90;99.90;;;;;;4899614;29;20087;-67
2023/06/07 06:34:28;;;;;;;6.72;3.90;;;16.90;99.90;;;;;;4894618;29;20040;-68
2023/06/07 06:36:54;;;;;;;7.38;3.95;;;16.80;99.90;;;;;;4898847;29;20289;-68
2023/06/07 06:39:22;;;;;;;8.25;5.50;;;16.80;99.90;;;;;;4898661;29;21440;-67
2023/06/07 06:41:47;;;;;;;10.40;4.35;;;16.80;99.90;;;;;;4905707;29;20036;-67
2023/06/07 06:44:13;;;;;;;7.65;3.80;;;16.80;99.90;;;;;;4900706;29;20035;-68
2023/06/07 06:46:38;;;;;;;7.20;3.95;;;16.80;99.90;;;;;;4898847;29;20486;-68
2023/06/07 06:49:04;;;;;;;9.23;4.90;;;16.80;99.90;;;;;;4896064;29;20159;-68
2023/06/07 06:51:30;;;;;;;7.30;3.70;;;16.80;99.90;;;;;;4897638;29;20056;-67
2023/06/07 06:53:55;;;;;;;11.93;3.55;;;16.80;99.90;;;;;;4901575;29;20119;-67
2023/06/07 06:56:21;;;;;;;9.55;4.63;;;16.80;99.90;;;;;;4894391;29;20036;-67
2023/06/07 06:58:46;;;;;;;8.60;4.47;;;17.00;99.90;;;;;;4896676;29;20039;-67
2023/06/07 07:01:14;;;;;;;10.80;4.40;;;17.00;99.90;;;;;;4903589;29;20038;-68
2023/06/07 07:03:40;;;;;;;8.25;4.38;;;17.10;99.90;;;;;;4900541;29;20032;-67
2023/06/07 07:06:07;;;;;;;9.93;4.25;;;17.20;99.90;;;;;;4897557;29;20028;-67
2023/06/07 07:08:34;;;;;;;8.52;4.13;;;17.30;99.90;;;;;;4902166;29;20047;-67
2023/06/07 07:11:00;;;;;;;14.98;4.80;;;17.40;99.90;;;;;;4897224;29;20055;-67
2023/06/07 07:13:25;;;;;;;8.82;3.92;;;17.50;99.90;;;;;;4895838;29;20036;-67
2023/06/07 07:15:51;;;;;;;8.90;4.40;;;17.60;99.90;;;;;;4890932;29;20043;-67
2023/06/07 07:18:17;;;;;;;8.13;5.00;;;17.50;99.90;;;;;;4900278;29;20311;-67
2023/06/07 07:20:42;;;;;;;9.73;5.03;;;17.40;99.90;;;;;;4900009;29;20561;-67
2023/06/07 07:23:08;;;;;;;15.65;5.40;;;17.50;99.90;;;;;;4905637;29;20402;-67
2023/06/07 07:25:34;;;;;;;7.55;4.10;;;17.50;99.90;;;;;;4900359;29;20479;-67
2023/06/07 07:28:00;;;;;;;13.65;4.72;;;17.60;99.90;;;;;;4902447;29;20119;-67
2023/06/07 07:30:25;;;;;;;11.70;5.15;;;17.70;99.90;;;;;;4910018;29;20039;-67
2023/06/07 07:32:53;;;;;;;11.85;5.30;;;17.90;99.90;;;;;;4899697;29;20402;-67
2023/06/07 07:35:18;;;;;;;11.40;4.35;;;18.30;99.90;;;;;;4899926;29;20112;-67
2023/06/07 07:37:44;;;;;;;7.88;4.18;;;18.80;99.90;;;;;;4900001;29;20440;-67
2023/06/07 07:40:12;;;;;;;7.30;4.70;;;19.50;99.90;;;;;;4896628;29;20024;-68
2023/06/07 07:42:38;;;;;;;12.10;4.03;;;20.30;99.90;;;;;;4900601;29;20024;-68
2023/06/07 07:45:05;;;;;;;11.18;4.68;;;21.00;99.90;;;;;;4898433;29;20040;-67
2023/06/07 07:47:31;;;;;;;6.80;4.50;;;21.30;99.90;;;;;;4900965;29;20043;-67
2023/06/07 07:49:56;;;;;;;9.25;4.35;;;21.40;99.90;;;;;;4898022;29;20272;-67
2023/06/07 07:52:22;;;;;;;10.10;3.97;;;21.20;99.90;;;;;;4904585;29;20060;-67
2023/06/07 07:54:48;;;;;;;6.88;3.90;;;21.30;98.70;;;;;;4897939;29;20031;-67
2023/06/07 07:57:13;;;;;;;7.10;3.97;;;21.40;99.90;;;;;;4901207;29;20051;-67
2023/06/07 07:59:39;;;;;;;7.95;3.67;;;21.40;99.30;;;;;;4906242;29;20032;-68
2023/06/07 08:02:05;;;;;;;5.78;3.85;;;21.60;98.30;;;;;;4898982;29;20039;-68
2023/06/07 08:04:30;;;;;;;7.35;3.67;;;21.80;97.60;;;;;;4900286;29;20117;-67
2023/06/07 08:06:56;;;;;;;6.30;4.32;;;21.90;98.30;;;;;;4902060;29;20068;-67
2023/06/07 08:09:22;;;;;;;5.25;3.70;;;22.40;97.40;;;;;;4896952;29;20039;-67
2023/06/07 08:11:48;;;;;;;6.30;4.10;;;23.20;96.30;;;;;;4899843;29;20032;-67
2023/06/07 08:14:14;;;;;;;6.20;3.22;;;24.30;94.10;;;;;;4899784;29;20039;-67
2023/06/07 08:16:40;;;;;;;6.15;3.78;;;25.20;92.10;;;;;;4899117;29;20080;-68
2023/06/07 08:19:07;;;;;;;7.88;3.28;;;25.90;90.60;;;;;;4897743;29;20036;-67
2023/06/07 08:21:33;;;;;;;4.82;2.83;;;26.40;88.80;;;;;;4900375;29;20024;-67
2023/06/07 08:23:59;;;;;;;7.30;3.20;;;26.30;88.10;;;;;;4900978;29;20448;-68
2023/06/07 08:26:25;;;;;;;4.20;2.72;;;26.40;89.40;;;;;;4902697;29;20529;-66
2023/06/07 08:28:51;;;;;;;5.82;3.10;;;26.40;85.20;;;;;;4899766;29;20044;-64
2023/06/07 08:31:17;;;;;;;4.57;2.60;;;27.50;82.80;;;;;;4909735;29;20050;-69
2023/06/07 08:33:43;;;;;;;3.33;2.55;;;27.80;81.10;;;;;;4909484;29;20036;-67
2023/06/07 08:36:09;;;;;;;5.45;2.63;;;28.10;76.80;;;;;;4897746;29;20028;-68
2023/06/07 08:38:37;;;;;;;5.38;2.65;;;27.90;77.50;;;;;;4903574;29;20075;-67
2023/06/07 08:41:03;;;;;;;5.18;2.25;;;28.60;74.70;;;;;;4898232;29;20028;-68
2023/06/07 08:43:28;;;;;;;5.20;2.80;;;29.40;75.10;;;;;;4897022;29;20080;-66
2023/06/07 08:45:56;;;;;;;2.92;2.30;;;28.90;74.20;;;;;;4903836;29;20487;-66
2023/06/07 08:48:22;;;;;;;6.80;2.67;;;28.90;72.90;;;;;;4911367;29;20032;-66
2023/06/07 08:50:51;;;;;;;5.72;2.90;;;28.50;74.70;;;;;;4909276;29;20028;-66
2023/06/07 08:53:32;;;;;;;3.78;2.50;;;28.80;73.20;;;;;;4916317;29;20469;-66
2023/06/07 08:55:59;;;;;;;4.68;2.78;;;29.70;71.40;;;;;;4906861;29;20035;-66
2023/06/07 08:58:26;;;;;;;5.72;3.10;;;29.40;72.40;;;;;;4912025;29;20020;-67
2023/06/07 09:00:53;;;;;;;4.63;3.03;;;30.00;72.50;;;;;;4911147;29;20447;-67
2023/06/07 09:03:19;;;;;;;4.72;2.90;;;29.60;71.00;;;;;;4914926;29;20028;-66
2023/06/07 09:05:46;;;;;;;6.15;3.00;;;29.80;71.70;;;;;;4917603;29;20039;-67
2023/06/07 09:08:11;;;;;;;4.70;3.00;;;29.20;71.10;;;;;;4913883;29;20060;-66
2023/06/07 09:10:37;;;;;;;7.40;2.78;;;28.80;73.10;;;;;;4906531;29;20064;-66
2023/06/07 09:13:05;;;;;;;4.45;2.92;;;28.90;72.80;;;;;;4914080;29;20583;-67
2023/06/07 09:15:32;;;;;;;4.35;2.60;;;28.90;73.20;;;;;;4913126;29;20470;-66
2023/06/07 09:17:59;;;;;;;4.13;3.00;;;28.50;74.70;;;;;;4905371;29;20080;-66
2023/06/07 09:20:27;;;;;;;5.85;3.00;;;28.00;74.20;;;;;;4915868;29;20032;-67
2023/06/07 09:23:14;;;;;;;4.93;3.35;;;27.50;76.00;;;;;;4910695;29;20020;-67
2023/06/07 09:25:44;;;;;;;5.65;3.30;;;27.20;77.40;;;;;;4913827;29;20019;-66
2023/06/07 09:28:11;;;;;;;4.63;3.10;;;27.40;78.20;;;;;;4912863;29;20103;-67
2023/06/07 09:30:55;;;;;;;6.30;3.67;;;27.90;77.10;;;;;;4913641;29;20024;-66
2023/06/07 09:33:33;;;;;;;5.05;3.20;;;28.50;76.00;;;;;;4917144;29;20083;-67
2023/06/07 09:36:09;;;;;;;5.63;3.10;;;29.00;75.00;;;;;;4913599;29;20039;-68
2023/06/07 09:38:38;;;;;;;5.03;4.20;;;29.40;74.30;;;;;;4917678;29;20486;-67
2023/06/07 09:41:06;;;;;;;7.10;3.95;;;29.10;74.70;;;;;;4917121;29;20038;-67
2023/06/07 09:43:54;;;;;;;4.72;3.28;;;28.40;76.70;;;;;;4913867;29;20032;-66
2023/06/07 09:46:20;;;;;;;4.65;3.70;;;28.80;76.00;;;;;;4913960;29;20031;-67
2023/06/07 09:48:51;;;;;;;7.10;4.13;;;28.70;75.50;;;;;;4920769;29;20035;-68
2023/06/07 09:51:18;;;;;;;4.40;3.42;;;28.80;76.20;;;;;;4911234;29;20027;-66
2023/06/07 09:54:01;;;;;;;4.57;3.28;;;28.20;76.40;;;;;;4911277;29;20028;-67
2023/06/07 09:56:27;;;;;;;5.00;3.63;;;28.00;78.50;;;;;;4914490;29;20367;-67
2023/06/07 09:59:09;;;;;;;6.15;3.55;;;28.70;76.90;;;;;;4910599;29;20732;-66
2023/06/07 10:01:41;;;;;;;8.43;3.33;;;29.10;75.90;;;;;;4909177;29;20102;-66
2023/06/07 10:04:08;;;;;;;;;;;29.30;74.40;;;;;;4917199;29;20024;-67
2023/06/07 10:06:41;;;;;;;6.30;3.78;;;28.20;77.00;;;;;;4921257;29;19915;-67
2023/06/07 10:09:07;;;;;;;6.65;4.03;;;28.10;77.80;;;;;;4909642;29;20051;-67
2023/06/07 10:11:35;;;;;;;6.47;4.47;;;27.60;77.60;;;;;;4917268;29;20040;-66
2023/06/07 10:14:06;;;;;;;9.27;4.47;;;27.50;78.30;;;;;;4914259;29;20039;-67
2023/06/07 10:16:37;;;;;;;6.03;3.60;;;27.30;80.00;;;;;;4914117;29;20375;-66
2023/06/07 10:19:59;;;;;;;5.68;4.00;;;27.30;79.20;;;;;;4911434;29;20028;-66
2023/06/07 10:22:28;;;;;;;7.50;4.43;;;27.20;78.30;;;;;;4911778;29;20127;-67
2023/06/07 10:25:12;;;;;;;7.43;4.22;;;26.90;80.20;;;;;;4912002;29;20087;-67
2023/06/07 10:28:00;;;;;;;6.85;3.90;;;26.90;79.10;;;;;;4908287;29;20375;-67
2023/06/07 10:30:28;;;;;;;5.75;4.22;;;26.80;80.60;;;;;;4914893;29;20032;-67
2023/06/07 10:32:55;;;;;;;5.68;4.30;;;26.50;80.60;;;;;;4918594;29;20447;-66
2023/06/07 10:35:20;;;;;;;7.07;4.25;;;26.40;81.10;;;;;;4907001;29;20036;-66
2023/06/07 10:37:53;;;;;;;7.82;5.38;;;26.00;83.10;;;;;;4914493;29;20024;-66
2023/06/07 10:40:20;;;;;;;8.97;5.27;;;25.80;82.60;;;;;;4916533;29;20091;-66
2023/06/07 10:42:46;;;;;;;8.00;4.63;;;25.80;83.30;;;;;;4916448;29;20276;-67
2023/06/07 10:45:16;;;;;;;6.30;5.07;;;25.40;83.90;;;;;;4915083;29;21867;-66
2023/06/07 10:47:42;;;;;;;8.85;4.82;;;25.50;82.90;;;;;;4917509;29;20074;-66
2023/06/07 10:50:32;;;;;;;6.05;4.57;;;25.40;83.30;;;;;;4916509;29;20394;-67
2023/06/07 10:52:59;;;;;;;5.65;4.57;;;25.30;83.70;;;;;;4913948;29;20028;-66
2023/06/07 10:55:26;;;;;;;6.55;4.68;;;25.20;83.80;;;;;;4908448;29;20050;-66
2023/06/07 10:57:53;;;;;;;8.35;4.35;;;25.00;85.70;;;;;;4910503;29;20060;-66
2023/06/07 11:00:30;;;;;;;9.18;4.40;;;25.00;85.50;;;;;;4916975;29;20033;-67
2023/06/07 11:03:04;;;;;;;9.38;4.90;;;25.10;85.70;;;;;;4914692;29;20030;-68
2023/06/07 11:05:52;;;;;;;7.68;5.50;;;24.90;85.60;;;;;;4917716;29;20195;-68
2023/06/07 11:08:26;;;;;;;6.30;4.80;;;24.50;85.70;;;;;;4916240;29;20032;-67
2023/06/07 11:10:58;;;;;;;6.78;4.57;;;24.40;87.20;;;;;;4907961;29;20024;-66
2023/06/07 11:13:47;;;;;;;11.63;5.43;;;24.40;88.40;;;;;;4903287;29;20708;-66
2023/06/07 11:16:24;;;;;;;6.35;4.40;;;24.40;87.00;;;;;;4905173;29;20047;-66
2023/06/07 11:18:55;;;;;;;7.05;4.70;;;23.90;88.40;;;;;;4905394;29;20447;-67
2023/06/07 11:21:21;;;;;;;10.93;5.20;;;24.00;88.20;;;;;;4914795;29;20020;-66
2023/06/07 11:24:10;;;;;;;6.85;4.95;;;24.10;88.50;;;;;;4908758;29;20042;-67
2023/06/07 11:26:35;;;;;;;7.18;4.63;;;24.50;88.20;;;;;;4917038;29;20048;-67
2023/06/07 11:29:03;;;;;;;8.20;5.45;;;24.70;88.70;;;;;;4921855;29;20040;-66
2023/06/07 11:31:28;;;;;;;7.07;4.97;;;24.60;87.10;;;;;;4917410;29;20040;-66
2023/06/07 11:33:54;;;;;;;12.10;6.00;;;24.40;88.60;;;;;;4911186;29;20032;-66
2023/06/07 11:36:20;;;;;;;7.47;5.00;;;24.30;91.80;;;;;;4910233;29;20108;-66
2023/06/07 11:38:59;;;;;;;10.02;6.07;;;23.80;93.00;;;;;;4919294;29;20032;-67
2023/06/07 11:41:25;;;;;;;9.77;6.80;;;23.40;95.80;;;;;;4911077;29;20403;-67
2023/06/07 11:43:51;;;;;;;10.80;6.80;;;23.00;99.90;;;;;;4918405;29;20038;-64
2023/06/07 11:46:17;;;;;;;11.10;6.40;;;22.80;99.90;;;;;;4918517;29;20024;-67
2023/06/07 11:48:43;;;;;;;8.32;5.97;;;22.80;99.90;;;;;;4917197;29;20043;-67
2023/06/07 11:51:08;;;;;;;8.25;6.65;;;22.90;99.90;;;;;;4914141;29;20043;-67
2023/06/07 11:53:34;;;;;;;9.15;5.60;;;22.90;99.90;;;;;;4921745;29;20036;-67
2023/06/07 11:56:01;;;;;;;7.82;5.97;;;23.00;99.90;;;;;;4911588;29;20498;-66
2023/06/07 11:58:27;;;;;;;15.50;6.35;;;22.90;99.90;;;;;;4893930;29;20391;-67
2023/06/07 12:00:54;;;;;;;8.88;5.65;;;23.00;99.90;;;;;;4913067;29;20032;-67
2023/06/07 12:03:21;;;;;;;8.38;5.95;;;23.10;99.90;;;;;;4921184;29;20098;-67
2023/06/07 12:05:47;;;;;;;10.25;5.70;;;23.40;99.90;;;;;;4916728;29;20016;-67
2023/06/07 12:08:15;;;;;;;7.47;5.45;;;24.00;99.90;;;;;;4907637;29;20797;-67
2023/06/07 12:10:41;;;;;;;9.02;4.90;;;24.60;99.90;;;;;;4919696;29;20066;-67
2023/06/07 12:13:14;;;;;;;9.70;6.15;;;24.60;99.90;;;;;;4913753;29;20028;-68
2023/06/07 12:15:48;;;;;;;8.57;4.97;;;25.00;96.90;;;;;;4908817;29;20048;-67
2023/06/07 12:18:16;;;;;;;8.50;4.55;;;24.70;95.90;;;;;;4914344;29;20047;-67
2023/06/07 12:20:42;;;;;;;8.60;4.82;;;24.30;98.70;;;;;;4891251;29;20115;-66
2023/06/07 12:23:10;;;;;;;6.55;4.68;;;24.10;96.10;;;;;;4905620;29;20111;-67
2023/06/07 12:25:36;;;;;;;11.27;5.63;;;24.10;97.40;;;;;;4907925;29;20031;-66
2023/06/07 12:28:06;;;;;;;9.02;5.78;;;24.00;97.70;;;;;;4917027;29;20035;-68
2023/06/07 12:30:40;;;;;;;6.45;4.38;;;23.60;98.00;;;;;;4909644;29;20151;-66
2023/06/07 12:33:12;;;;;;;7.95;4.80;;;23.40;97.00;;;;;;4888662;29;20040;-67
2023/06/07 12:35:39;;;;;;;6.15;3.88;;;23.20;97.30;;;;;;4908858;29;20095;-66
2023/06/07 12:38:05;;;;;;;4.88;3.53;;;23.00;97.70;;;;;;4911734;29;20577;-66
2023/06/07 12:40:31;;;;;;;6.25;3.65;;;23.10;96.80;;;;;;4911137;29;20031;-67
2023/06/07 12:42:57;;;;;;;3.40;3.03;;;23.30;96.20;;;;;;4909005;29;20031;-68
2023/06/07 12:45:23;;;;;;;8.20;3.60;;;23.50;97.20;;;;;;4915883;29;20112;-67
2023/06/07 12:47:48;;;;;;;4.60;2.88;;;23.60;95.90;;;;;;4915790;29;20410;-67